Sao Roque, Brazil
Current Conditions -  °F | °C
As of 6:00 PM on Monday 24 Nov 2014 (Local Time) from SBSP Reporting Station
Overcast Overcast  
Wind Chill: 70°   Ceiling: 1100
Heat Index: 70°   Visibility: 5mi
Dew Point: 64°   Wind: 13mph
Humidity: 83%   Direction: 150°SSE
Pressure: 30"   Gusts: NA
Location:  23.53°S, 47.14°W
Report Text: SBSP 242000Z 15011KT 8000 SCT007 OVC011 21/18 Q1016
Loading
Personal Weather Stations






























Interactive Weather Map New forecast layout! Learn more

10-Day Weather Forecast

Advertisements
Track Severe Weather on mobile